Time;durP1;ratioP1;P1;durP2;ratioP2;P2;SDS_P1;SDS_P2;PMS_P1;PMS_P2;Temp;Humidity;BMP_temperature;BMP_pressure;BME280_temperature;BME280_humidity;BME280_pressure;Samples;Min_cycle;Max_cycle;Signal;HPM_P1;HPM_P2
2024/03/16 00:02:14;;;;;;;8.30;6.27;;;11.50;99.90;;;;;;5096319;28;20471;-60
2024/03/16 00:04:43;;;;;;;11.80;6.23;;;11.50;99.90;;;;;;5096278;28;20452;-60
2024/03/16 00:07:10;;;;;;;6.03;5.53;;;11.50;99.90;;;;;;5096141;28;20461;-59
2024/03/16 00:09:37;;;;;;;10.63;6.53;;;11.40;99.90;;;;;;5095920;28;20434;-60
2024/03/16 00:12:04;;;;;;;8.40;6.90;;;11.40;99.90;;;;;;5096461;28;20458;-61
2024/03/16 00:14:31;;;;;;;7.97;7.13;;;11.40;99.90;;;;;;5096005;28;20434;-61
2024/03/16 00:16:58;;;;;;;7.43;6.30;;;11.40;99.90;;;;;;5096355;28;20457;-61
2024/03/16 00:19:25;;;;;;;6.97;6.33;;;11.40;99.90;;;;;;5095046;28;20478;-60
2024/03/16 00:21:52;;;;;;;8.50;6.00;;;11.30;99.90;;;;;;5092859;28;20454;-61
2024/03/16 00:24:20;;;;;;;11.70;7.00;;;11.30;99.90;;;;;;5093481;28;20446;-61
2024/03/16 00:26:47;;;;;;;12.60;6.50;;;11.30;99.90;;;;;;5092877;28;20438;-61
2024/03/16 00:29:15;;;;;;;7.63;5.70;;;11.30;99.90;;;;;;5095014;28;20811;-61
2024/03/16 00:31:42;;;;;;;9.60;6.13;;;11.30;99.90;;;;;;5097118;28;20507;-62
2024/03/16 00:34:09;;;;;;;8.40;6.30;;;11.30;99.90;;;;;;5097751;28;20479;-60
2024/03/16 00:36:36;;;;;;;8.63;6.33;;;11.20;99.90;;;;;;5099716;28;20964;-60
2024/03/16 00:39:14;;;;;;;9.93;6.10;;;11.20;99.90;;;;;;5100026;28;20503;-60
2024/03/16 00:41:42;;;;;;;6.53;5.87;;;11.20;99.90;;;;;;5098957;28;20454;-59
2024/03/16 00:44:08;;;;;;;9.10;6.43;;;11.20;99.90;;;;;;5098929;28;20519;-60
2024/03/16 00:46:35;;;;;;;12.43;6.57;;;11.20;99.90;;;;;;5096622;28;20442;-61
2024/03/16 00:49:02;;;;;;;8.57;6.47;;;11.20;99.90;;;;;;5096191;28;20940;-61
2024/03/16 00:51:29;;;;;;;10.90;6.30;;;11.20;99.90;;;;;;5096303;28;20462;-60
2024/03/16 00:53:56;;;;;;;9.80;7.10;;;11.20;99.90;;;;;;5095892;28;20808;-60
2024/03/16 00:56:23;;;;;;;10.10;6.80;;;11.20;99.90;;;;;;5095810;28;20817;-61
2024/03/16 00:58:50;;;;;;;9.07;6.90;;;11.20;99.90;;;;;;5095874;28;20535;-60
2024/03/16 01:01:18;;;;;;;9.27;7.40;;;11.20;99.90;;;;;;5097249;28;20477;-60
2024/03/16 01:03:44;;;;;;;12.70;7.83;;;11.20;99.90;;;;;;5099177;28;20854;-60
2024/03/16 01:06:11;;;;;;;10.17;7.13;;;11.20;99.90;;;;;;5102746;28;20965;-60
2024/03/16 01:08:38;;;;;;;12.20;8.07;;;11.30;99.90;;;;;;5103402;28;20438;-61
2024/03/16 01:11:06;;;;;;;10.30;7.90;;;11.30;99.90;;;;;;5102277;28;20493;-60
2024/03/16 01:13:33;;;;;;;10.97;7.50;;;11.30;99.90;;;;;;5100529;28;20442;-60
2024/03/16 01:16:01;;;;;;;10.50;7.30;;;11.30;99.90;;;;;;5101404;28;20448;-60
2024/03/16 01:18:28;;;;;;;10.93;7.70;;;11.30;99.90;;;;;;5099219;28;20505;-61
2024/03/16 01:20:55;;;;;;;11.50;6.83;;;11.20;99.90;;;;;;5100543;28;20470;-60
2024/03/16 01:23:22;;;;;;;12.67;6.87;;;11.20;99.90;;;;;;5101035;28;20506;-61
2024/03/16 01:25:49;;;;;;;9.03;7.47;;;11.20;99.90;;;;;;5098239;28;20940;-60
2024/03/16 01:28:16;;;;;;;8.77;6.97;;;11.30;99.90;;;;;;5094686;28;20434;-61
2024/03/16 01:30:43;;;;;;;9.70;7.33;;;11.40;99.90;;;;;;5094506;28;20467;-61
2024/03/16 01:33:10;;;;;;;9.13;7.00;;;11.40;99.90;;;;;;5095066;28;20450;-60
2024/03/16 01:35:37;;;;;;;12.40;8.10;;;11.40;99.90;;;;;;5095218;28;20523;-59
2024/03/16 01:38:04;;;;;;;8.40;7.00;;;11.50;99.90;;;;;;5094716;28;20434;-60
2024/03/16 01:40:32;;;;;;;10.30;6.43;;;11.50;99.90;;;;;;5094024;28;20430;-61
2024/03/16 01:42:59;;;;;;;12.60;6.43;;;11.50;99.90;;;;;;5094833;28;20466;-60
2024/03/16 01:45:26;;;;;;;12.87;6.70;;;11.50;99.90;;;;;;5094514;28;20435;-59
2024/03/16 01:47:54;;;;;;;8.63;6.23;;;11.50;99.90;;;;;;5094550;28;20438;-61
2024/03/16 01:50:21;;;;;;;10.63;5.60;;;11.50;99.90;;;;;;5094325;28;20942;-60
2024/03/16 01:52:48;;;;;;;11.20;5.90;;;11.50;99.90;;;;;;5095114;28;20462;-62
2024/03/16 01:55:15;;;;;;;7.60;4.70;;;11.50;99.90;;;;;;5095911;28;20438;-60
2024/03/16 01:57:42;;;;;;;9.00;4.50;;;11.60;99.90;;;;;;5094334;28;20454;-59
2024/03/16 02:00:11;;;;;;;6.70;5.17;;;11.60;99.90;;;;;;5094377;28;20478;-59
2024/03/16 02:02:38;;;;;;;7.50;5.30;;;11.60;99.90;;;;;;5094075;28;20470;-60
2024/03/16 02:05:05;;;;;;;7.80;4.90;;;11.60;99.90;;;;;;5094255;28;20449;-59
2024/03/16 02:07:32;;;;;;;6.27;4.90;;;11.60;99.90;;;;;;5094131;28;20503;-60
2024/03/16 02:09:59;;;;;;;5.07;4.37;;;11.50;99.90;;;;;;5097413;28;20933;-60
2024/03/16 02:12:26;;;;;;;8.90;5.47;;;11.50;99.90;;;;;;5096236;28;20458;-60
2024/03/16 02:14:53;;;;;;;7.07;5.37;;;11.50;99.90;;;;;;5094618;28;20812;-60
2024/03/16 02:17:20;;;;;;;6.23;4.30;;;11.50;99.90;;;;;;5094107;28;20958;-60
2024/03/16 02:19:47;;;;;;;8.23;4.77;;;11.50;99.90;;;;;;5094790;28;21000;-60
2024/03/16 02:22:14;;;;;;;7.83;5.60;;;11.50;99.90;;;;;;5094959;28;20462;-60
2024/03/16 02:24:41;;;;;;;9.80;5.97;;;11.50;99.90;;;;;;5094844;28;20533;-60
2024/03/16 02:27:08;;;;;;;7.33;4.47;;;11.50;99.90;;;;;;5094790;28;20952;-58
2024/03/16 02:29:36;;;;;;;6.57;4.87;;;11.50;99.90;;;;;;5097498;28;20774;-59
2024/03/16 02:32:05;;;;;;;6.43;4.97;;;11.40;99.90;;;;;;5097110;28;20980;-60
2024/03/16 02:34:32;;;;;;;6.93;4.73;;;11.40;99.90;;;;;;5093471;28;20799;-61
2024/03/16 02:36:59;;;;;;;6.03;5.10;;;11.40;99.90;;;;;;5093798;28;20439;-60
2024/03/16 02:39:26;;;;;;;8.73;5.23;;;11.40;99.90;;;;;;5093506;28;20485;-60
2024/03/16 02:41:55;;;;;;;5.40;4.77;;;11.30;99.90;;;;;;5093461;28;20454;-61
2024/03/16 02:44:22;;;;;;;7.17;5.60;;;11.20;99.90;;;;;;5094137;28;20453;-60
2024/03/16 02:46:49;;;;;;;11.30;6.47;;;11.10;99.90;;;;;;5093499;28;20426;-59
2024/03/16 02:49:16;;;;;;;8.83;6.90;;;11.10;99.90;;;;;;5093394;28;20493;-60
2024/03/16 02:51:42;;;;;;;9.53;7.20;;;11.00;99.90;;;;;;5092064;28;21029;-61
2024/03/16 02:54:10;;;;;;;10.23;6.67;;;11.00;99.90;;;;;;5093065;28;20447;-60
2024/03/16 02:56:37;;;;;;;8.27;6.43;;;10.90;99.90;;;;;;5093204;28;20438;-61
2024/03/16 02:59:04;;;;;;;12.23;8.03;;;10.90;99.90;;;;;;5093369;28;20474;-60
2024/03/16 03:01:30;;;;;;;10.20;7.40;;;10.80;99.90;;;;;;5116202;22;20983;-63
2024/03/16 03:03:57;;;;;;;10.37;7.20;;;10.90;99.90;;;;;;5093464;28;20808;-63
2024/03/16 03:06:25;;;;;;;9.90;7.63;;;10.90;99.90;;;;;;5093649;28;20433;-61
2024/03/16 03:08:52;;;;;;;10.80;7.83;;;10.90;99.90;;;;;;5093675;28;20427;-63
2024/03/16 03:11:19;;;;;;;9.67;7.73;;;10.80;99.90;;;;;;5093350;28;20455;-63
2024/03/16 03:13:47;;;;;;;14.17;8.20;;;10.80;99.90;;;;;;5077350;28;20434;-64
2024/03/16 03:16:18;;;;;;;11.00;7.27;;;10.80;99.90;;;;;;5076843;28;20434;-64
2024/03/16 03:18:46;;;;;;;8.87;7.27;;;10.80;99.90;;;;;;5077230;28;20472;-63
2024/03/16 03:21:13;;;;;;;11.47;7.43;;;10.80;99.90;;;;;;5076532;28;20499;-62
2024/03/16 03:23:40;;;;;;;13.50;8.03;;;10.80;99.90;;;;;;5076822;28;20443;-63
2024/03/16 03:26:08;;;;;;;10.50;7.10;;;10.80;99.90;;;;;;5076494;28;20438;-63
2024/03/16 03:28:34;;;;;;;10.57;8.40;;;10.80;99.90;;;;;;5076913;28;20472;-63
2024/03/16 03:31:01;;;;;;;12.30;7.50;;;10.80;99.90;;;;;;5076328;28;20453;-63
2024/03/16 03:33:28;;;;;;;16.03;7.80;;;10.80;99.90;;;;;;5076447;28;20443;-63
2024/03/16 03:35:55;;;;;;;11.60;6.33;;;10.80;99.90;;;;;;5076133;28;20950;-63
2024/03/16 03:38:22;;;;;;;7.70;6.70;;;10.80;99.90;;;;;;5076537;28;20446;-62
2024/03/16 03:40:48;;;;;;;10.23;8.30;;;10.80;99.90;;;;;;5076011;28;21025;-63
2024/03/16 03:43:19;;;;;;;10.60;6.93;;;10.90;99.90;;;;;;5076200;28;20442;-64
2024/03/16 03:45:50;;;;;;;11.13;6.90;;;10.90;99.90;;;;;;5077036;28;20427;-63
2024/03/16 03:48:35;;;;;;;8.87;5.90;;;10.90;99.90;;;;;;5077949;28;20433;-63
2024/03/16 03:51:03;;;;;;;12.80;6.63;;;10.90;99.90;;;;;;5081053;28;20461;-63
2024/03/16 03:53:30;;;;;;;7.07;6.10;;;10.90;99.90;;;;;;5077715;28;20446;-63
2024/03/16 03:55:58;;;;;;;7.30;5.90;;;10.90;99.90;;;;;;5076005;28;20936;-62
2024/03/16 03:58:25;;;;;;;11.80;7.00;;;10.80;99.90;;;;;;5079717;28;20435;-63
2024/03/16 04:00:52;;;;;;;15.33;7.30;;;10.80;99.90;;;;;;5084540;28;20858;-64
2024/03/16 04:03:19;;;;;;;11.43;6.53;;;10.80;99.90;;;;;;5080855;28;20429;-63
2024/03/16 04:05:46;;;;;;;10.30;6.50;;;10.80;99.90;;;;;;5077566;28;20444;-63
2024/03/16 04:08:12;;;;;;;11.23;5.80;;;10.80;99.90;;;;;;5075518;28;20442;-62
2024/03/16 04:13:21;;;;;;;10.47;6.33;;;10.80;99.90;;;;;;5170067;27;20549;-61
2024/03/16 04:15:49;;;;;;;11.50;6.20;;;10.80;99.90;;;;;;5152612;27;20774;-63
2024/03/16 04:18:16;;;;;;;9.27;6.23;;;10.80;99.90;;;;;;5152121;27;20470;-63
2024/03/16 04:20:42;;;;;;;10.60;6.27;;;10.90;99.90;;;;;;5152752;27;20784;-63
2024/03/16 04:23:09;;;;;;;11.83;5.53;;;10.90;99.90;;;;;;5134528;27;20929;-64
2024/03/16 04:25:36;;;;;;;15.97;5.80;;;10.90;99.90;;;;;;5134752;27;20531;-64
2024/03/16 04:28:03;;;;;;;10.43;5.90;;;11.00;99.90;;;;;;5100367;22;20490;-63
2024/03/16 04:30:30;;;;;;;9.97;6.53;;;11.00;99.90;;;;;;5068987;28;20916;-63
2024/03/16 04:32:57;;;;;;;11.40;6.47;;;11.00;99.90;;;;;;5069000;28;20475;-63
2024/03/16 04:35:24;;;;;;;7.87;5.53;;;11.00;99.90;;;;;;5069134;28;20443;-63
2024/03/16 04:37:52;;;;;;;9.03;6.07;;;11.00;99.90;;;;;;5065397;28;20463;-63
2024/03/16 04:40:19;;;;;;;8.33;7.07;;;11.00;99.90;;;;;;5048579;28;20434;-64
2024/03/16 04:42:46;;;;;;;9.13;6.17;;;11.00;99.90;;;;;;5048556;28;20523;-63
2024/03/16 04:45:13;;;;;;;10.37;7.30;;;11.00;99.90;;;;;;5048560;28;20492;-63
2024/03/16 04:47:40;;;;;;;8.73;5.87;;;11.00;99.90;;;;;;5048215;28;20502;-63
2024/03/16 04:50:07;;;;;;;7.63;6.77;;;11.00;99.90;;;;;;5049091;28;20428;-62
2024/03/16 04:52:34;;;;;;;9.07;6.50;;;11.00;99.90;;;;;;5048557;28;20476;-62
2024/03/16 04:55:01;;;;;;;8.47;6.13;;;10.90;99.90;;;;;;5048207;28;20532;-62
2024/03/16 04:57:29;;;;;;;7.87;6.40;;;10.90;99.90;;;;;;5048271;28;20464;-62
2024/03/16 04:59:56;;;;;;;9.87;7.50;;;10.90;99.90;;;;;;5048000;28;20445;-64
2024/03/16 05:02:23;;;;;;;9.40;6.97;;;10.80;99.90;;;;;;5099729;22;21096;-62
2024/03/16 05:04:51;;;;;;;11.03;7.33;;;10.80;99.90;;;;;;5072527;28;20437;-62
2024/03/16 05:07:18;;;;;;;9.00;7.20;;;10.80;99.90;;;;;;5072936;28;20434;-62
2024/03/16 05:09:45;;;;;;;12.20;7.53;;;10.80;99.90;;;;;;5073198;28;20435;-63
2024/03/16 05:12:13;;;;;;;11.83;8.37;;;10.90;99.90;;;;;;5072660;28;20478;-62
2024/03/16 05:14:40;;;;;;;12.50;9.10;;;10.90;99.90;;;;;;5089226;28;20448;-62
2024/03/16 05:17:07;;;;;;;11.20;8.30;;;10.90;99.90;;;;;;5089050;28;20434;-60
2024/03/16 05:19:33;;;;;;;11.27;7.87;;;10.90;99.90;;;;;;5088820;28;20952;-63
2024/03/16 05:22:00;;;;;;;11.10;8.73;;;11.00;99.90;;;;;;5089069;28;20461;-62
2024/03/16 05:24:27;;;;;;;12.90;8.80;;;11.00;99.90;;;;;;5077187;28;20937;-62
2024/03/16 05:26:54;;;;;;;10.13;8.37;;;11.00;99.90;;;;;;5075703;28;20493;-62
2024/03/16 05:29:21;;;;;;;10.60;8.53;;;11.00;99.90;;;;;;5075052;28;20811;-63
2024/03/16 05:31:56;;;;;;;11.37;10.07;;;11.00;99.90;;;;;;5075022;28;20482;-62
2024/03/16 05:34:23;;;;;;;13.53;10.40;;;11.10;99.90;;;;;;5075468;28;20427;-62
2024/03/16 05:36:49;;;;;;;10.93;9.57;;;11.00;99.90;;;;;;5074940;28;20466;-63
2024/03/16 05:39:16;;;;;;;15.23;9.83;;;11.00;99.90;;;;;;5076157;28;20949;-62
2024/03/16 05:41:43;;;;;;;13.57;9.83;;;10.90;99.90;;;;;;5077540;28;20466;-62
2024/03/16 05:44:10;;;;;;;13.30;10.73;;;10.90;99.90;;;;;;5078441;28;20435;-62
2024/03/16 05:46:37;;;;;;;15.50;10.87;;;10.80;99.90;;;;;;5077628;28;20439;-64
2024/03/16 05:49:04;;;;;;;18.00;11.60;;;10.80;99.90;;;;;;5075918;28;20451;-62
2024/03/16 05:51:31;;;;;;;14.53;11.67;;;10.70;99.90;;;;;;5074849;28;20828;-62
2024/03/16 05:53:59;;;;;;;19.63;12.10;;;10.60;99.90;;;;;;5074750;28;20436;-63
2024/03/16 05:56:26;;;;;;;13.53;11.77;;;10.50;99.90;;;;;;5075113;28;20447;-63
2024/03/16 05:58:53;;;;;;;13.73;11.40;;;10.40;99.90;;;;;;5074755;28;20940;-63
2024/03/16 06:01:20;;;;;;;15.23;11.00;;;10.40;99.90;;;;;;5074720;28;20478;-63
2024/03/16 06:03:46;;;;;;;18.40;12.43;;;10.30;99.90;;;;;;5075001;28;20432;-63
2024/03/16 06:06:13;;;;;;;18.20;12.50;;;10.30;99.90;;;;;;5074446;28;20942;-63
2024/03/16 06:08:40;;;;;;;18.80;13.10;;;10.20;99.90;;;;;;5074431;28;20442;-63
2024/03/16 06:11:08;;;;;;;15.97;11.70;;;10.20;99.90;;;;;;5074724;28;20460;-63
2024/03/16 06:13:34;;;;;;;18.53;11.90;;;10.20;99.90;;;;;;5074631;28;20489;-64
2024/03/16 06:16:02;;;;;;;16.23;11.67;;;10.20;99.90;;;;;;5077686;28;20498;-62
2024/03/16 06:18:29;;;;;;;13.30;10.33;;;10.20;99.90;;;;;;5083703;28;20501;-63
2024/03/16 06:20:55;;;;;;;13.80;11.13;;;10.20;99.90;;;;;;5081756;28;20979;-63
2024/03/16 06:23:22;;;;;;;14.70;10.87;;;10.20;99.90;;;;;;5077187;28;20440;-64
2024/03/16 06:25:50;;;;;;;13.70;11.40;;;10.20;99.90;;;;;;5075190;28;20443;-63
2024/03/16 06:28:21;;;;;;;14.33;10.57;;;10.20;99.90;;;;;;5075020;28;20501;-63
2024/03/16 06:30:49;;;;;;;13.20;10.60;;;10.20;99.90;;;;;;5074373;28;20430;-63
2024/03/16 06:33:29;;;;;;;13.27;11.60;;;10.20;99.90;;;;;;5074127;28;20915;-63
2024/03/16 06:35:56;;;;;;;12.80;10.03;;;10.20;99.90;;;;;;5073570;28;20426;-63
2024/03/16 06:38:23;;;;;;;17.57;12.17;;;10.20;99.90;;;;;;5074885;28;20447;-63
2024/03/16 06:40:50;;;;;;;11.90;10.07;;;10.30;99.90;;;;;;5073834;28;20443;-63
2024/03/16 06:43:17;;;;;;;11.40;9.53;;;10.30;99.90;;;;;;5073977;28;20462;-63
2024/03/16 06:45:44;;;;;;;15.00;10.00;;;10.40;99.90;;;;;;5074203;28;20778;-62
2024/03/16 06:48:11;;;;;;;13.13;10.03;;;10.40;99.90;;;;;;5073423;28;20439;-62
2024/03/16 06:50:38;;;;;;;12.57;10.70;;;10.50;99.90;;;;;;5073516;28;20933;-63
2024/03/16 06:53:06;;;;;;;11.73;9.70;;;10.60;99.90;;;;;;5073689;28;20829;-62
2024/03/16 06:55:33;;;;;;;15.63;9.90;;;10.70;99.90;;;;;;5073876;28;20530;-63
2024/03/16 06:58:00;;;;;;;13.60;10.53;;;10.80;99.90;;;;;;5073790;28;20463;-63
2024/03/16 07:00:28;;;;;;;11.70;9.27;;;10.80;99.90;;;;;;5074369;28;20502;-64
2024/03/16 07:02:55;;;;;;;16.60;10.60;;;10.80;99.90;;;;;;5074002;28;20475;-63
2024/03/16 07:05:22;;;;;;;13.37;10.80;;;10.80;99.90;;;;;;5074292;28;20846;-62
2024/03/16 07:07:49;;;;;;;15.57;10.07;;;10.70;99.90;;;;;;5074202;28;20435;-62
2024/03/16 07:10:16;;;;;;;15.20;10.17;;;10.70;99.90;;;;;;5074943;28;20435;-61
2024/03/16 07:12:43;;;;;;;12.80;9.90;;;10.60;99.90;;;;;;5078721;28;20506;-62
2024/03/16 07:15:12;;;;;;;18.90;12.27;;;10.50;99.90;;;;;;5079028;28;20812;-61
2024/03/16 07:17:39;;;;;;;16.00;11.00;;;10.40;99.90;;;;;;5079417;28;20457;-62
2024/03/16 07:20:10;;;;;;;14.70;11.07;;;10.40;99.90;;;;;;5079396;28;20950;-63
2024/03/16 07:22:37;;;;;;;14.37;10.57;;;10.40;99.90;;;;;;5080190;28;20460;-63
2024/03/16 07:25:04;;;;;;;16.33;10.00;;;10.40;99.90;;;;;;5079819;28;20450;-63
2024/03/16 07:27:32;;;;;;;13.73;9.77;;;10.30;99.90;;;;;;5078423;28;20921;-63
2024/03/16 07:29:58;;;;;;;16.27;10.83;;;10.20;99.90;;;;;;5077708;28;20439;-61
2024/03/16 07:32:25;;;;;;;8.27;5.70;;;10.10;99.90;;;;;;5078849;28;20478;-62
2024/03/16 07:34:52;;;;;;;11.10;6.70;;;10.10;99.90;;;;;;5080077;28;20439;-62
2024/03/16 07:37:19;;;;;;;9.53;6.97;;;10.00;99.90;;;;;;5081158;28;20447;-62
2024/03/16 07:39:47;;;;;;;6.97;5.85;;;10.00;99.90;;;;;;5080170;28;20436;-62
2024/03/16 07:42:14;;;;;;;5.00;3.63;;;9.90;99.90;;;;;;5080230;28;20292;-63
2024/03/16 07:44:41;;;;;;;5.57;3.57;;;9.70;99.90;;;;;;5082336;28;20451;-63
2024/03/16 07:47:08;;;;;;;4.47;3.10;;;9.50;99.90;;;;;;5079736;28;20442;-62
2024/03/16 07:49:35;;;;;;;3.20;2.90;;;9.30;99.90;;;;;;5081285;28;20204;-62
2024/03/16 07:52:03;;;;;;;2.92;2.00;;;9.10;99.90;;;;;;5080434;28;20721;-62
2024/03/16 07:54:30;;;;;;;2.90;2.20;;;8.90;99.90;;;;;;5079276;28;20266;-63
2024/03/16 07:56:58;;;;;;;1.95;1.63;;;8.80;99.90;;;;;;5073732;28;20200;-60
2024/03/16 07:59:25;;;;;;;2.40;2.20;;;8.80;99.90;;;;;;5072839;28;20209;-61
2024/03/16 08:01:52;;;;;;;3.65;2.28;;;8.70;99.90;;;;;;5072242;28;20614;-62
2024/03/16 08:04:19;;;;;;;5.53;2.58;;;8.60;99.90;;;;;;5073266;28;20671;-62
2024/03/16 08:06:46;;;;;;;3.25;2.10;;;8.60;99.90;;;;;;5072623;28;20600;-63
2024/03/16 08:09:13;;;;;;;2.10;1.90;;;8.60;99.90;;;;;;5072915;28;20208;-62
2024/03/16 08:11:41;;;;;;;2.83;2.38;;;8.60;99.90;;;;;;5072902;28;20260;-64
2024/03/16 08:14:08;;;;;;;5.47;2.78;;;8.60;99.90;;;;;;5073082;28;20225;-63
2024/03/16 08:16:35;;;;;;;4.22;2.63;;;8.60;99.90;;;;;;5072577;28;20205;-62
2024/03/16 08:19:02;;;;;;;3.42;2.90;;;8.70;99.90;;;;;;5072533;28;20201;-61
2024/03/16 08:21:29;;;;;;;3.00;2.63;;;8.70;99.90;;;;;;5072255;28;20221;-61
2024/03/16 08:23:56;;;;;;;7.28;3.13;;;8.80;99.90;;;;;;5073026;28;20640;-63
2024/03/16 08:26:23;;;;;;;4.00;2.85;;;8.80;99.90;;;;;;5072817;28;20307;-62
2024/03/16 08:28:50;;;;;;;3.85;2.97;;;8.80;99.90;;;;;;5071930;28;20287;-62
2024/03/16 08:31:16;;;;;;;4.82;3.03;;;8.90;99.90;;;;;;5072000;28;20221;-62
2024/03/16 08:33:44;;;;;;;3.67;2.58;;;8.90;99.90;;;;;;5072246;28;20656;-61
2024/03/16 08:36:11;;;;;;;4.28;3.13;;;8.90;99.90;;;;;;5074263;28;20209;-61
2024/03/16 08:38:38;;;;;;;5.63;3.20;;;8.90;99.90;;;;;;5080732;28;20550;-62
2024/03/16 08:41:04;;;;;;;5.18;3.67;;;8.80;99.90;;;;;;5078312;28;20224;-61
2024/03/16 08:43:31;;;;;;;3.40;3.10;;;8.90;99.90;;;;;;5074953;28;20215;-63
2024/03/16 08:46:01;;;;;;;4.45;3.25;;;8.90;99.90;;;;;;5073542;28;20204;-62
2024/03/16 08:48:27;;;;;;;5.85;2.95;;;8.90;99.90;;;;;;5072827;28;20205;-62
2024/03/16 08:50:57;;;;;;;3.70;2.90;;;8.80;99.90;;;;;;5072264;28;20546;-63
2024/03/16 08:53:24;;;;;;;4.70;3.00;;;8.70;99.90;;;;;;5072613;28;20229;-62
2024/03/16 08:55:51;;;;;;;5.15;3.15;;;8.70;99.90;;;;;;5073127;28;20197;-60
2024/03/16 08:58:21;;;;;;;2.65;2.20;;;8.60;99.90;;;;;;5073475;28;20254;-60
2024/03/16 09:00:48;;;;;;;1.50;1.30;;;8.60;99.90;;;;;;5077132;28;20739;-62
2024/03/16 09:03:14;;;;;;;2.20;1.40;;;8.40;99.90;;;;;;5080591;28;20264;-62
2024/03/16 09:05:41;;;;;;;6.47;1.83;;;8.20;99.90;;;;;;5076658;28;20215;-61
2024/03/16 09:08:08;;;;;;;2.22;1.80;;;8.00;99.90;;;;;;5075700;28;20197;-62
2024/03/16 09:10:36;;;;;;;2.70;1.80;;;7.90;99.90;;;;;;5075823;28;20205;-62
2024/03/16 09:13:03;;;;;;;3.25;1.80;;;7.80;99.90;;;;;;5075657;28;20227;-63
2024/03/16 09:15:29;;;;;;;3.20;1.98;;;7.70;99.90;;;;;;5075806;28;20287;-62
2024/03/16 09:17:56;;;;;;;5.50;1.60;;;7.70;99.90;;;;;;5075623;28;20224;-63
2024/03/16 09:20:23;;;;;;;2.97;2.28;;;7.70;99.90;;;;;;5075628;28;20232;-62
2024/03/16 09:22:52;;;;;;;2.65;1.60;;;7.70;99.90;;;;;;5075582;28;20229;-62
2024/03/16 09:25:20;;;;;;;3.83;1.67;;;7.80;99.90;;;;;;5075235;28;20296;-62
2024/03/16 09:27:47;;;;;;;4.47;1.80;;;7.80;99.90;;;;;;5075425;28;20205;-63
2024/03/16 09:30:16;;;;;;;5.13;2.53;;;7.80;99.90;;;;;;5075610;28;20205;-61
2024/03/16 09:32:45;;;;;;;10.10;1.70;;;7.90;99.90;;;;;;5075470;28;20252;-63
2024/03/16 09:35:11;;;;;;;7.45;2.50;;;8.00;99.90;;;;;;5075488;28;20201;-64
2024/03/16 09:37:38;;;;;;;5.93;2.15;;;8.10;99.90;;;;;;5076283;28;20211;-63
2024/03/16 09:40:09;;;;;;;7.30;1.80;;;8.20;99.90;;;;;;5076291;28;20201;-62
2024/03/16 09:42:36;;;;;;;4.40;2.55;;;8.30;99.90;;;;;;5076224;28;20221;-63
2024/03/16 09:45:06;;;;;;;7.97;2.00;;;8.40;99.90;;;;;;5076542;28;20205;-62
2024/03/16 09:47:33;;;;;;;4.90;1.67;;;8.40;99.90;;;;;;5075644;28;20215;-62
2024/03/16 09:50:01;;;;;;;5.78;2.10;;;8.40;99.90;;;;;;5075361;28;20677;-62
2024/03/16 09:52:28;;;;;;;5.82;2.38;;;8.40;99.90;;;;;;5075010;28;20224;-62
2024/03/16 09:54:57;;;;;;;4.03;1.40;;;8.10;99.90;;;;;;5075700;28;20232;-63
2024/03/16 09:57:25;;;;;;;4.25;1.67;;;7.90;99.90;;;;;;5077034;28;20201;-62
2024/03/16 09:59:52;;;;;;;3.65;1.65;;;7.70;99.90;;;;;;5076749;28;20236;-64
2024/03/16 10:02:20;;;;;;;5.32;1.50;;;7.80;99.90;;;;;;5075832;28;20224;-62
2024/03/16 10:04:46;;;;;;;7.72;2.47;;;7.80;99.90;;;;;;5075481;28;20201;-62
2024/03/16 10:07:13;;;;;;;8.15;2.40;;;8.00;99.90;;;;;;5074719;28;20542;-63
2024/03/16 10:09:52;;;;;;;5.45;2.10;;;8.10;99.90;;;;;;5074545;28;20663;-62
2024/03/16 10:12:19;;;;;;;9.77;2.50;;;8.30;99.90;;;;;;5075650;28;20227;-63
2024/03/16 10:14:48;;;;;;;5.43;1.77;;;8.50;99.90;;;;;;5074894;28;20221;-61
2024/03/16 10:17:15;;;;;;;2.53;1.92;;;8.70;99.90;;;;;;5075555;28;20201;-62
2024/03/16 10:19:42;;;;;;;8.20;2.53;;;8.80;99.90;;;;;;5074753;28;20204;-63
2024/03/16 10:22:09;;;;;;;5.55;2.63;;;9.00;99.90;;;;;;5074869;28;20741;-61
2024/03/16 10:24:35;;;;;;;7.72;2.40;;;9.20;99.90;;;;;;5074319;28;20204;-62
2024/03/16 10:27:03;;;;;;;6.50;2.07;;;9.30;99.90;;;;;;5075334;28;20212;-62
2024/03/16 10:29:30;;;;;;;6.63;2.17;;;9.50;99.90;;;;;;5075165;28;20957;-62
2024/03/16 10:31:57;;;;;;;8.57;2.03;;;9.70;99.90;;;;;;5074905;28;20275;-62
2024/03/16 10:34:25;;;;;;;3.87;1.97;;;9.70;99.90;;;;;;5074967;28;20476;-63
2024/03/16 10:36:52;;;;;;;4.00;2.03;;;9.80;99.90;;;;;;5074972;28;20443;-62
2024/03/16 10:39:22;;;;;;;4.33;1.90;;;9.80;99.90;;;;;;5074742;28;20451;-62
2024/03/16 10:41:49;;;;;;;6.93;1.85;;;9.60;99.90;;;;;;5074848;28;20470;-62
2024/03/16 10:44:16;;;;;;;5.85;1.67;;;9.30;99.90;;;;;;5074252;28;20220;-61
2024/03/16 10:46:43;;;;;;;4.90;1.38;;;9.10;99.90;;;;;;5074305;28;20667;-62
2024/03/16 10:49:11;;;;;;;5.90;1.80;;;9.00;99.90;;;;;;5074205;28;20324;-63
2024/03/16 10:51:38;;;;;;;4.22;1.42;;;8.90;99.90;;;;;;5074468;28;20311;-62
2024/03/16 10:54:10;;;;;;;10.80;2.10;;;8.80;99.90;;;;;;5074972;28;20643;-62
2024/03/16 10:56:38;;;;;;;4.32;1.40;;;8.80;99.90;;;;;;5073832;28;20292;-62
2024/03/16 10:59:06;;;;;;;9.40;2.07;;;8.80;99.90;;;;;;5073655;28;20254;-62
2024/03/16 11:01:38;;;;;;;6.57;1.70;;;8.80;99.90;;;;;;5074789;28;20487;-63
2024/03/16 11:04:06;;;;;;;6.00;1.88;;;8.80;99.90;;;;;;5082580;28;20189;-61
2024/03/16 11:06:41;;;;;;;4.15;2.05;;;8.80;99.90;;;;;;5082694;28;20212;-62
2024/03/16 11:09:08;;;;;;;4.33;1.90;;;8.90;99.90;;;;;;5074819;28;20216;-62
2024/03/16 11:11:35;;;;;;;4.55;1.35;;;9.00;99.90;;;;;;5074075;28;20506;-61
2024/03/16 11:14:05;;;;;;;6.50;1.67;;;9.10;99.90;;;;;;5074181;28;20591;-62
2024/03/16 11:16:33;;;;;;;3.72;2.33;;;9.30;99.90;;;;;;5073735;28;20315;-62
2024/03/16 11:19:00;;;;;;;7.40;1.70;;;9.40;99.90;;;;;;5073245;28;20239;-62
2024/03/16 11:21:27;;;;;;;6.40;1.37;;;9.60;99.90;;;;;;5072935;28;20472;-62
2024/03/16 11:23:54;;;;;;;4.00;1.60;;;9.60;99.50;;;;;;5073917;28;20431;-61
2024/03/16 11:26:29;;;;;;;6.83;1.90;;;9.60;99.30;;;;;;5073975;28;20439;-62
2024/03/16 11:29:04;;;;;;;4.77;1.80;;;9.70;99.00;;;;;;5074536;28;20463;-61
2024/03/16 11:31:31;;;;;;;3.83;1.37;;;9.80;98.20;;;;;;5073532;28;20804;-63
2024/03/16 11:33:58;;;;;;;5.60;1.70;;;9.80;96.70;;;;;;5073731;28;20475;-62
2024/03/16 11:36:26;;;;;;;4.00;1.70;;;9.80;96.40;;;;;;5073412;28;20443;-61
2024/03/16 11:38:52;;;;;;;3.40;1.90;;;9.70;96.00;;;;;;5073220;28;20450;-61
2024/03/16 11:41:19;;;;;;;2.00;1.27;;;9.70;95.10;;;;;;5073115;28;20459;-60
2024/03/16 11:43:45;;;;;;;5.17;1.80;;;9.60;94.70;;;;;;5073314;28;20455;-61
2024/03/16 11:46:13;;;;;;;4.30;1.73;;;9.50;94.20;;;;;;5073371;28;20463;-62
2024/03/16 11:48:42;;;;;;;5.90;2.30;;;9.40;94.50;;;;;;5073391;28;20451;-62
2024/03/16 11:51:10;;;;;;;4.40;1.90;;;9.30;94.70;;;;;;5073589;28;20546;-62
2024/03/16 11:53:36;;;;;;;7.20;4.45;;;9.30;95.00;;;;;;5073288;28;20534;-62
2024/03/16 11:56:03;;;;;;;5.70;1.87;;;9.40;94.90;;;;;;5073002;28;20240;-61
2024/03/16 11:58:30;;;;;;;2.55;1.70;;;9.40;95.00;;;;;;5073755;28;20439;-62
2024/03/16 12:00:57;;;;;;;6.20;1.80;;;9.40;95.30;;;;;;5072925;28;20293;-61
2024/03/16 12:03:22;;;;;;;2.77;1.70;;;9.40;95.00;;;;;;5073311;28;20427;-62
2024/03/16 12:05:49;;;;;;;6.67;2.50;;;9.40;95.10;;;;;;5073193;28;20964;-62
2024/03/16 12:08:15;;;;;;;6.70;1.83;;;9.50;95.40;;;;;;5072800;28;20456;-61
2024/03/16 12:10:42;;;;;;;5.47;2.17;;;9.70;95.10;;;;;;5072918;28;20542;-63
2024/03/16 12:13:08;;;;;;;2.70;1.40;;;9.80;95.10;;;;;;5073068;28;20515;-61
2024/03/16 12:15:36;;;;;;;3.50;1.83;;;9.90;94.90;;;;;;5072965;28;20977;-61
2024/03/16 12:18:05;;;;;;;4.30;1.80;;;10.00;92.80;;;;;;5073457;28;20812;-63
2024/03/16 12:20:33;;;;;;;6.90;1.90;;;10.00;92.30;;;;;;5072346;28;20957;-62
2024/03/16 12:22:59;;;;;;;4.03;2.07;;;10.00;92.10;;;;;;5072603;28;20459;-62
2024/03/16 12:25:26;;;;;;;3.20;1.43;;;10.10;90.90;;;;;;5072917;28;20929;-63
2024/03/16 12:27:52;;;;;;;4.20;1.73;;;10.10;90.40;;;;;;5073059;28;20443;-62
2024/03/16 12:30:20;;;;;;;4.37;1.60;;;10.20;87.80;;;;;;5074111;28;20961;-63
2024/03/16 12:32:47;;;;;;;6.03;1.57;;;10.20;86.80;;;;;;5073710;28;20474;-62
2024/03/16 12:35:14;;;;;;;2.50;1.40;;;10.20;86.30;;;;;;5078431;28;20471;-65
2024/03/16 12:37:40;;;;;;;2.10;1.33;;;10.30;84.30;;;;;;5078925;28;20443;-62
2024/03/16 12:40:08;;;;;;;3.37;1.50;;;10.20;82.90;;;;;;5077022;28;20438;-62
2024/03/16 12:42:34;;;;;;;2.57;1.53;;;10.00;81.70;;;;;;5076696;28;20481;-63
2024/03/16 12:45:00;;;;;;;6.00;1.87;;;9.90;82.80;;;;;;5077196;28;20443;-62
2024/03/16 12:47:26;;;;;;;5.13;1.70;;;9.80;83.40;;;;;;5077052;28;20447;-62
2024/03/16 12:49:54;;;;;;;5.57;1.80;;;9.80;84.40;;;;;;5076272;28;20458;-60